sensor_id;sensor_type;location;lat;lon;timestamp;temperature;humidity
21169;DHT22;10742;51.816;8.662;2023-12-20T00:01:54;12.10;99.90
21169;DHT22;10742;51.816;8.662;2023-12-20T00:05:16;12.10;99.90
21169;DHT22;10742;51.816;8.662;2023-12-20T00:08:37;12.10;99.90
21169;DHT22;10742;51.816;8.662;2023-12-20T00:11:58;12.10;99.90
21169;DHT22;10742;51.816;8.662;2023-12-20T00:15:20;12.10;99.90
21169;DHT22;10742;51.816;8.662;2023-12-20T00:18:41;12.00;99.90
21169;DHT22;10742;51.816;8.662;2023-12-20T00:22:02;12.00;99.90
21169;DHT22;10742;51.816;8.662;2023-12-20T00:25:24;12.00;99.90
21169;DHT22;10742;51.816;8.662;2023-12-20T00:28:45;12.00;99.90
21169;DHT22;10742;51.816;8.662;2023-12-20T00:32:07;12.00;99.90
21169;DHT22;10742;51.816;8.662;2023-12-20T00:35:28;12.00;99.90
21169;DHT22;10742;51.816;8.662;2023-12-20T00:38:50;12.00;99.90
21169;DHT22;10742;51.816;8.662;2023-12-20T00:42:12;12.00;99.90
21169;DHT22;10742;51.816;8.662;2023-12-20T00:45:33;12.00;99.90
21169;DHT22;10742;51.816;8.662;2023-12-20T00:48:54;12.00;99.90
21169;DHT22;10742;51.816;8.662;2023-12-20T00:52:15;12.00;99.90
21169;DHT22;10742;51.816;8.662;2023-12-20T00:55:38;11.90;99.90
21169;DHT22;10742;51.816;8.662;2023-12-20T00:58:59;11.90;99.90
21169;DHT22;10742;51.816;8.662;2023-12-20T01:02:21;11.90;99.90
21169;DHT22;10742;51.816;8.662;2023-12-20T01:05:42;11.90;99.90
21169;DHT22;10742;51.816;8.662;2023-12-20T01:09:03;11.90;99.90
21169;DHT22;10742;51.816;8.662;2023-12-20T01:12:24;11.90;99.90
21169;DHT22;10742;51.816;8.662;2023-12-20T01:15:46;11.80;99.90
21169;DHT22;10742;51.816;8.662;2023-12-20T01:19:08;11.80;99.90
21169;DHT22;10742;51.816;8.662;2023-12-20T01:22:29;11.70;99.90
21169;DHT22;10742;51.816;8.662;2023-12-20T01:25:51;11.70;99.90
21169;DHT22;10742;51.816;8.662;2023-12-20T01:29:12;11.70;99.90
21169;DHT22;10742;51.816;8.662;2023-12-20T01:32:34;11.60;99.90
21169;DHT22;10742;51.816;8.662;2023-12-20T01:35:55;11.60;99.90
21169;DHT22;10742;51.816;8.662;2023-12-20T01:39:17;11.60;99.90
21169;DHT22;10742;51.816;8.662;2023-12-20T01:42:41;11.50;99.90
21169;DHT22;10742;51.816;8.662;2023-12-20T01:46:03;11.50;99.90
21169;DHT22;10742;51.816;8.662;2023-12-20T01:49:24;11.50;99.90
21169;DHT22;10742;51.816;8.662;2023-12-20T01:52:45;11.50;99.90
21169;DHT22;10742;51.816;8.662;2023-12-20T01:56:07;11.50;99.90
21169;DHT22;10742;51.816;8.662;2023-12-20T01:59:29;11.50;99.90
21169;DHT22;10742;51.816;8.662;2023-12-20T02:02:53;11.40;99.90
21169;DHT22;10742;51.816;8.662;2023-12-20T02:06:15;11.40;99.90
21169;DHT22;10742;51.816;8.662;2023-12-20T02:09:37;11.40;99.90
21169;DHT22;10742;51.816;8.662;2023-12-20T02:12:59;11.30;99.90
21169;DHT22;10742;51.816;8.662;2023-12-20T02:16:24;11.30;99.90
21169;DHT22;10742;51.816;8.662;2023-12-20T02:19:45;11.30;99.90
21169;DHT22;10742;51.816;8.662;2023-12-20T02:23:07;11.30;99.90
21169;DHT22;10742;51.816;8.662;2023-12-20T02:26:28;11.30;99.90
21169;DHT22;10742;51.816;8.662;2023-12-20T02:29:50;11.20;99.90
21169;DHT22;10742;51.816;8.662;2023-12-20T02:33:12;11.20;99.90
21169;DHT22;10742;51.816;8.662;2023-12-20T02:36:35;11.20;99.90
21169;DHT22;10742;51.816;8.662;2023-12-20T02:39:56;11.20;99.90
21169;DHT22;10742;51.816;8.662;2023-12-20T02:43:17;11.20;99.90
21169;DHT22;10742;51.816;8.662;2023-12-20T02:46:39;11.20;99.90
21169;DHT22;10742;51.816;8.662;2023-12-20T02:50:00;11.20;99.90
21169;DHT22;10742;51.816;8.662;2023-12-20T02:53:21;11.10;99.90
21169;DHT22;10742;51.816;8.662;2023-12-20T02:56:43;11.10;99.90
21169;DHT22;10742;51.816;8.662;2023-12-20T03:00:05;11.10;99.90
21169;DHT22;10742;51.816;8.662;2023-12-20T03:03:26;11.00;99.90
21169;DHT22;10742;51.816;8.662;2023-12-20T03:06:47;11.00;99.90
21169;DHT22;10742;51.816;8.662;2023-12-20T03:10:09;11.00;99.90
21169;DHT22;10742;51.816;8.662;2023-12-20T03:13:31;11.00;99.90
21169;DHT22;10742;51.816;8.662;2023-12-20T03:16:52;10.90;99.90
21169;DHT22;10742;51.816;8.662;2023-12-20T03:20:13;10.90;99.90
21169;DHT22;10742;51.816;8.662;2023-12-20T03:23:34;10.90;99.90
21169;DHT22;10742;51.816;8.662;2023-12-20T03:26:56;10.80;99.90
21169;DHT22;10742;51.816;8.662;2023-12-20T03:30:17;10.80;99.90
21169;DHT22;10742;51.816;8.662;2023-12-20T03:33:38;10.90;99.90
21169;DHT22;10742;51.816;8.662;2023-12-20T03:37:00;10.80;99.90
21169;DHT22;10742;51.816;8.662;2023-12-20T03:40:21;10.80;99.90
21169;DHT22;10742;51.816;8.662;2023-12-20T03:43:43;10.80;99.90
21169;DHT22;10742;51.816;8.662;2023-12-20T03:47:04;10.80;99.90
21169;DHT22;10742;51.816;8.662;2023-12-20T03:50:26;10.80;99.90
21169;DHT22;10742;51.816;8.662;2023-12-20T03:53:47;10.80;99.90
21169;DHT22;10742;51.816;8.662;2023-12-20T03:57:08;10.80;99.90
21169;DHT22;10742;51.816;8.662;2023-12-20T04:00:30;10.70;99.90
21169;DHT22;10742;51.816;8.662;2023-12-20T04:03:51;10.80;99.90
21169;DHT22;10742;51.816;8.662;2023-12-20T04:07:12;10.80;99.90
21169;DHT22;10742;51.816;8.662;2023-12-20T04:10:34;10.80;99.90
21169;DHT22;10742;51.816;8.662;2023-12-20T04:13:55;10.80;99.90
21169;DHT22;10742;51.816;8.662;2023-12-20T04:17:18;10.70;99.90
21169;DHT22;10742;51.816;8.662;2023-12-20T04:20:39;10.70;99.90
21169;DHT22;10742;51.816;8.662;2023-12-20T04:24:00;10.70;99.90
21169;DHT22;10742;51.816;8.662;2023-12-20T04:27:21;10.70;99.90
21169;DHT22;10742;51.816;8.662;2023-12-20T04:30:43;10.70;99.90
21169;DHT22;10742;51.816;8.662;2023-12-20T04:34:04;10.70;99.90
21169;DHT22;10742;51.816;8.662;2023-12-20T04:37:26;10.70;99.90
21169;DHT22;10742;51.816;8.662;2023-12-20T04:40:47;10.70;99.90
21169;DHT22;10742;51.816;8.662;2023-12-20T04:44:09;10.70;99.90
21169;DHT22;10742;51.816;8.662;2023-12-20T04:47:30;10.70;99.90
21169;DHT22;10742;51.816;8.662;2023-12-20T04:50:51;10.70;99.90
21169;DHT22;10742;51.816;8.662;2023-12-20T04:54:12;10.70;99.90
21169;DHT22;10742;51.816;8.662;2023-12-20T04:57:35;10.60;99.90
21169;DHT22;10742;51.816;8.662;2023-12-20T05:00:56;10.70;99.90
21169;DHT22;10742;51.816;8.662;2023-12-20T05:04:18;10.70;99.90
21169;DHT22;10742;51.816;8.662;2023-12-20T05:07:39;10.70;99.90
21169;DHT22;10742;51.816;8.662;2023-12-20T05:11:00;10.70;99.90
21169;DHT22;10742;51.816;8.662;2023-12-20T05:14:22;10.70;99.90
21169;DHT22;10742;51.816;8.662;2023-12-20T05:17:43;10.70;99.90
21169;DHT22;10742;51.816;8.662;2023-12-20T05:21:05;10.70;99.90
21169;DHT22;10742;51.816;8.662;2023-12-20T05:24:26;10.70;99.90
21169;DHT22;10742;51.816;8.662;2023-12-20T05:27:48;10.70;99.90
21169;DHT22;10742;51.816;8.662;2023-12-20T05:31:09;10.70;99.90
21169;DHT22;10742;51.816;8.662;2023-12-20T05:34:31;10.70;99.90
21169;DHT22;10742;51.816;8.662;2023-12-20T05:37:53;10.70;99.90
21169;DHT22;10742;51.816;8.662;2023-12-20T05:41:14;10.70;99.90
21169;DHT22;10742;51.816;8.662;2023-12-20T05:44:35;10.70;99.90
21169;DHT22;10742;51.816;8.662;2023-12-20T05:47:57;10.70;99.90
21169;DHT22;10742;51.816;8.662;2023-12-20T05:51:19;10.60;99.90
21169;DHT22;10742;51.816;8.662;2023-12-20T05:54:40;10.60;99.90
21169;DHT22;10742;51.816;8.662;2023-12-20T05:58:02;10.60;99.90
21169;DHT22;10742;51.816;8.662;2023-12-20T06:01:24;10.60;99.90
21169;DHT22;10742;51.816;8.662;2023-12-20T06:04:45;10.60;99.90
21169;DHT22;10742;51.816;8.662;2023-12-20T06:08:07;10.60;99.90
21169;DHT22;10742;51.816;8.662;2023-12-20T06:11:28;10.60;99.90
21169;DHT22;10742;51.816;8.662;2023-12-20T06:14:49;10.60;99.90
21169;DHT22;10742;51.816;8.662;2023-12-20T06:18:10;10.60;99.90
21169;DHT22;10742;51.816;8.662;2023-12-20T06:21:32;10.60;99.90
21169;DHT22;10742;51.816;8.662;2023-12-20T06:24:53;10.60;99.90
21169;DHT22;10742;51.816;8.662;2023-12-20T06:28:15;10.60;99.90
21169;DHT22;10742;51.816;8.662;2023-12-20T06:31:36;10.60;99.90
21169;DHT22;10742;51.816;8.662;2023-12-20T06:34:58;10.70;99.90
21169;DHT22;10742;51.816;8.662;2023-12-20T06:38:20;10.70;99.90
21169;DHT22;10742;51.816;8.662;2023-12-20T06:41:41;10.70;99.90
21169;DHT22;10742;51.816;8.662;2023-12-20T06:45:04;10.70;99.90
21169;DHT22;10742;51.816;8.662;2023-12-20T06:48:25;10.70;99.90
21169;DHT22;10742;51.816;8.662;2023-12-20T06:51:47;10.70;99.90
21169;DHT22;10742;51.816;8.662;2023-12-20T06:55:09;10.80;99.90
21169;DHT22;10742;51.816;8.662;2023-12-20T06:58:30;10.70;99.90
21169;DHT22;10742;51.816;8.662;2023-12-20T07:01:51;10.80;99.90
21169;DHT22;10742;51.816;8.662;2023-12-20T07:05:16;10.70;99.90
21169;DHT22;10742;51.816;8.662;2023-12-20T07:08:38;10.80;99.90
21169;DHT22;10742;51.816;8.662;2023-12-20T07:12:00;10.70;99.90
21169;DHT22;10742;51.816;8.662;2023-12-20T07:15:22;10.70;99.90
21169;DHT22;10742;51.816;8.662;2023-12-20T07:18:43;10.70;99.90
21169;DHT22;10742;51.816;8.662;2023-12-20T07:22:05;10.80;99.90
21169;DHT22;10742;51.816;8.662;2023-12-20T07:25:27;10.70;99.90
21169;DHT22;10742;51.816;8.662;2023-12-20T07:28:49;10.70;99.90
21169;DHT22;10742;51.816;8.662;2023-12-20T07:32:10;10.70;99.90
21169;DHT22;10742;51.816;8.662;2023-12-20T07:35:31;10.70;99.90
21169;DHT22;10742;51.816;8.662;2023-12-20T07:38:53;10.70;99.90
21169;DHT22;10742;51.816;8.662;2023-12-20T07:42:14;10.70;99.90
21169;DHT22;10742;51.816;8.662;2023-12-20T07:45:36;10.70;99.90
21169;DHT22;10742;51.816;8.662;2023-12-20T07:48:57;10.70;99.90
21169;DHT22;10742;51.816;8.662;2023-12-20T07:52:19;10.80;99.90
21169;DHT22;10742;51.816;8.662;2023-12-20T07:55:40;10.80;99.90
21169;DHT22;10742;51.816;8.662;2023-12-20T07:59:02;10.70;99.90
21169;DHT22;10742;51.816;8.662;2023-12-20T08:02:23;10.80;99.90
21169;DHT22;10742;51.816;8.662;2023-12-20T08:05:44;10.70;99.90
21169;DHT22;10742;51.816;8.662;2023-12-20T08:09:06;10.80;99.90
21169;DHT22;10742;51.816;8.662;2023-12-20T08:12:27;10.80;99.90
21169;DHT22;10742;51.816;8.662;2023-12-20T08:15:49;10.70;99.90
21169;DHT22;10742;51.816;8.662;2023-12-20T08:19:10;10.80;99.90
21169;DHT22;10742;51.816;8.662;2023-12-20T08:22:32;10.80;99.90
21169;DHT22;10742;51.816;8.662;2023-12-20T08:26:07;10.70;99.90
21169;DHT22;10742;51.816;8.662;2023-12-20T08:29:29;10.80;99.90
21169;DHT22;10742;51.816;8.662;2023-12-20T08:32:50;10.70;99.90
21169;DHT22;10742;51.816;8.662;2023-12-20T08:36:13;10.80;99.90
21169;DHT22;10742;51.816;8.662;2023-12-20T08:39:34;10.80;99.90
21169;DHT22;10742;51.816;8.662;2023-12-20T08:42:55;10.80;99.90
21169;DHT22;10742;51.816;8.662;2023-12-20T08:46:17;10.80;99.90
21169;DHT22;10742;51.816;8.662;2023-12-20T08:49:39;10.80;99.90
21169;DHT22;10742;51.816;8.662;2023-12-20T08:53:00;10.80;99.90
21169;DHT22;10742;51.816;8.662;2023-12-20T08:56:21;10.80;99.90
21169;DHT22;10742;51.816;8.662;2023-12-20T08:59:43;10.80;99.90
21169;DHT22;10742;51.816;8.662;2023-12-20T09:03:04;10.80;99.90
21169;DHT22;10742;51.816;8.662;2023-12-20T09:06:26;10.80;99.90
21169;DHT22;10742;51.816;8.662;2023-12-20T09:09:47;10.80;99.90
21169;DHT22;10742;51.816;8.662;2023-12-20T09:13:09;10.80;99.90
21169;DHT22;10742;51.816;8.662;2023-12-20T09:16:30;10.80;99.90
21169;DHT22;10742;51.816;8.662;2023-12-20T09:19:52;10.80;99.90
21169;DHT22;10742;51.816;8.662;2023-12-20T09:23:15;10.80;99.90
21169;DHT22;10742;51.816;8.662;2023-12-20T09:26:36;10.70;99.90
21169;DHT22;10742;51.816;8.662;2023-12-20T09:29:57;10.70;99.90
21169;DHT22;10742;51.816;8.662;2023-12-20T09:33:18;10.70;99.90
21169;DHT22;10742;51.816;8.662;2023-12-20T09:36:40;10.70;99.90
21169;DHT22;10742;51.816;8.662;2023-12-20T09:40:09;10.70;99.90
21169;DHT22;10742;51.816;8.662;2023-12-20T09:43:35;10.70;99.90
21169;DHT22;10742;51.816;8.662;2023-12-20T09:46:58;10.70;99.90
21169;DHT22;10742;51.816;8.662;2023-12-20T09:50:21;10.70;99.90
21169;DHT22;10742;51.816;8.662;2023-12-20T09:53:43;10.70;99.90
21169;DHT22;10742;51.816;8.662;2023-12-20T09:57:05;10.70;99.90
21169;DHT22;10742;51.816;8.662;2023-12-20T10:00:27;10.70;99.90
21169;DHT22;10742;51.816;8.662;2023-12-20T10:03:48;10.70;99.90
21169;DHT22;10742;51.816;8.662;2023-12-20T10:07:12;10.80;99.90
21169;DHT22;10742;51.816;8.662;2023-12-20T10:10:34;10.80;99.90
21169;DHT22;10742;51.816;8.662;2023-12-20T10:14:01;10.80;99.90
21169;DHT22;10742;51.816;8.662;2023-12-20T10:17:23;10.80;99.90
21169;DHT22;10742;51.816;8.662;2023-12-20T10:20:47;10.80;99.90
21169;DHT22;10742;51.816;8.662;2023-12-20T10:24:09;10.80;99.90
21169;DHT22;10742;51.816;8.662;2023-12-20T10:27:37;10.90;99.90
21169;DHT22;10742;51.816;8.662;2023-12-20T10:30:59;10.90;99.90
21169;DHT22;10742;51.816;8.662;2023-12-20T10:34:20;10.90;99.90
21169;DHT22;10742;51.816;8.662;2023-12-20T10:37:41;10.90;99.90
21169;DHT22;10742;51.816;8.662;2023-12-20T10:41:04;10.90;99.90
21169;DHT22;10742;51.816;8.662;2023-12-20T10:44:26;10.90;99.90
21169;DHT22;10742;51.816;8.662;2023-12-20T10:47:49;10.90;99.90
21169;DHT22;10742;51.816;8.662;2023-12-20T10:51:11;10.90;99.90
21169;DHT22;10742;51.816;8.662;2023-12-20T10:54:33;10.90;99.90
21169;DHT22;10742;51.816;8.662;2023-12-20T10:58:02;10.90;99.90
21169;DHT22;10742;51.816;8.662;2023-12-20T11:01:28;10.90;99.90
21169;DHT22;10742;51.816;8.662;2023-12-20T11:04:56;10.90;99.90
21169;DHT22;10742;51.816;8.662;2023-12-20T11:08:57;10.90;99.90
21169;DHT22;10742;51.816;8.662;2023-12-20T11:12:39;10.90;99.90
21169;DHT22;10742;51.816;8.662;2023-12-20T11:16:02;10.90;99.90
21169;DHT22;10742;51.816;8.662;2023-12-20T11:19:24;10.90;99.90
21169;DHT22;10742;51.816;8.662;2023-12-20T11:22:53;10.90;99.90
21169;DHT22;10742;51.816;8.662;2023-12-20T11:26:22;10.90;99.90
21169;DHT22;10742;51.816;8.662;2023-12-20T11:29:59;10.90;99.90
21169;DHT22;10742;51.816;8.662;2023-12-20T11:33:36;10.90;99.90
21169;DHT22;10742;51.816;8.662;2023-12-20T11:36:58;10.90;99.90
21169;DHT22;10742;51.816;8.662;2023-12-20T11:40:20;10.90;99.90
21169;DHT22;10742;51.816;8.662;2023-12-20T11:43:44;10.90;99.90
21169;DHT22;10742;51.816;8.662;2023-12-20T11:47:07;10.90;99.90
21169;DHT22;10742;51.816;8.662;2023-12-20T11:50:28;10.90;99.90
21169;DHT22;10742;51.816;8.662;2023-12-20T11:53:51;10.90;99.90
21169;DHT22;10742;51.816;8.662;2023-12-20T11:57:14;10.90;99.90
21169;DHT22;10742;51.816;8.662;2023-12-20T12:00:36;11.00;99.90
21169;DHT22;10742;51.816;8.662;2023-12-20T12:04:06;11.00;99.90
21169;DHT22;10742;51.816;8.662;2023-12-20T12:07:28;11.00;99.90
21169;DHT22;10742;51.816;8.662;2023-12-20T12:10:50;11.00;99.90
21169;DHT22;10742;51.816;8.662;2023-12-20T12:14:11;11.00;99.90
21169;DHT22;10742;51.816;8.662;2023-12-20T12:17:33;11.10;99.90
21169;DHT22;10742;51.816;8.662;2023-12-20T12:21:00;11.10;99.90
21169;DHT22;10742;51.816;8.662;2023-12-20T12:24:22;11.10;99.90
21169;DHT22;10742;51.816;8.662;2023-12-20T12:27:43;11.10;99.90
21169;DHT22;10742;51.816;8.662;2023-12-20T12:31:05;11.10;99.90
21169;DHT22;10742;51.816;8.662;2023-12-20T12:34:30;11.20;99.90
21169;DHT22;10742;51.816;8.662;2023-12-20T12:37:51;11.20;99.90
21169;DHT22;10742;51.816;8.662;2023-12-20T12:41:14;11.30;99.90
21169;DHT22;10742;51.816;8.662;2023-12-20T12:44:36;11.30;99.90
21169;DHT22;10742;51.816;8.662;2023-12-20T12:47:57;11.30;99.90
21169;DHT22;10742;51.816;8.662;2023-12-20T12:51:19;11.30;99.90
21169;DHT22;10742;51.816;8.662;2023-12-20T12:54:40;11.30;99.90
21169;DHT22;10742;51.816;8.662;2023-12-20T12:58:03;11.40;99.90
21169;DHT22;10742;51.816;8.662;2023-12-20T13:01:25;11.40;99.90
21169;DHT22;10742;51.816;8.662;2023-12-20T13:04:47;11.40;99.90
21169;DHT22;10742;51.816;8.662;2023-12-20T13:08:08;11.40;99.90
21169;DHT22;10742;51.816;8.662;2023-12-20T13:11:30;11.40;99.90
21169;DHT22;10742;51.816;8.662;2023-12-20T13:14:55;11.40;99.90
21169;DHT22;10742;51.816;8.662;2023-12-20T13:18:17;11.50;99.90
21169;DHT22;10742;51.816;8.662;2023-12-20T13:21:41;11.40;99.90
21169;DHT22;10742;51.816;8.662;2023-12-20T13:25:02;11.50;99.90
21169;DHT22;10742;51.816;8.662;2023-12-20T13:28:24;11.50;99.90
21169;DHT22;10742;51.816;8.662;2023-12-20T13:31:45;11.50;99.90
21169;DHT22;10742;51.816;8.662;2023-12-20T13:35:07;11.50;99.90
21169;DHT22;10742;51.816;8.662;2023-12-20T13:38:28;11.50;99.90
21169;DHT22;10742;51.816;8.662;2023-12-20T13:41:49;11.50;99.90
21169;DHT22;10742;51.816;8.662;2023-12-20T13:45:10;11.50;99.90
21169;DHT22;10742;51.816;8.662;2023-12-20T13:48:32;11.60;99.90
21169;DHT22;10742;51.816;8.662;2023-12-20T13:51:54;11.60;99.90
21169;DHT22;10742;51.816;8.662;2023-12-20T13:55:19;11.60;99.90
21169;DHT22;10742;51.816;8.662;2023-12-20T13:58:43;11.60;99.90
21169;DHT22;10742;51.816;8.662;2023-12-20T14:02:04;11.60;99.90
21169;DHT22;10742;51.816;8.662;2023-12-20T14:05:26;11.60;99.90
21169;DHT22;10742;51.816;8.662;2023-12-20T14:08:48;11.60;99.90
21169;DHT22;10742;51.816;8.662;2023-12-20T14:12:10;11.60;99.90
21169;DHT22;10742;51.816;8.662;2023-12-20T14:15:32;11.60;99.90
21169;DHT22;10742;51.816;8.662;2023-12-20T14:18:57;11.50;99.90
21169;DHT22;10742;51.816;8.662;2023-12-20T14:22:19;11.40;99.90
21169;DHT22;10742;51.816;8.662;2023-12-20T14:25:41;11.20;99.90
21169;DHT22;10742;51.816;8.662;2023-12-20T14:29:05;11.10;99.90
21169;DHT22;10742;51.816;8.662;2023-12-20T14:32:28;11.00;99.90
21169;DHT22;10742;51.816;8.662;2023-12-20T14:35:49;10.90;99.90
21169;DHT22;10742;51.816;8.662;2023-12-20T14:39:11;10.80;99.90
21169;DHT22;10742;51.816;8.662;2023-12-20T14:42:34;10.70;99.90
21169;DHT22;10742;51.816;8.662;2023-12-20T14:45:55;10.70;99.90
21169;DHT22;10742;51.816;8.662;2023-12-20T14:49:17;10.70;99.90
21169;DHT22;10742;51.816;8.662;2023-12-20T14:52:38;10.70;99.90
21169;DHT22;10742;51.816;8.662;2023-12-20T14:55:59;10.70;99.90
21169;DHT22;10742;51.816;8.662;2023-12-20T14:59:21;10.80;99.90
21169;DHT22;10742;51.816;8.662;2023-12-20T15:02:44;10.80;99.90
21169;DHT22;10742;51.816;8.662;2023-12-20T15:06:05;10.80;99.90
21169;DHT22;10742;51.816;8.662;2023-12-20T15:09:27;10.80;99.90
21169;DHT22;10742;51.816;8.662;2023-12-20T15:12:50;10.80;99.90
21169;DHT22;10742;51.816;8.662;2023-12-20T15:16:12;10.70;99.90
21169;DHT22;10742;51.816;8.662;2023-12-20T15:19:33;10.60;99.90
21169;DHT22;10742;51.816;8.662;2023-12-20T15:22:55;10.60;99.90
21169;DHT22;10742;51.816;8.662;2023-12-20T15:26:16;10.60;99.90
21169;DHT22;10742;51.816;8.662;2023-12-20T15:29:37;10.60;99.90
21169;DHT22;10742;51.816;8.662;2023-12-20T15:32:59;10.60;99.90
21169;DHT22;10742;51.816;8.662;2023-12-20T15:36:21;10.60;99.90
21169;DHT22;10742;51.816;8.662;2023-12-20T15:39:42;10.60;99.90
21169;DHT22;10742;51.816;8.662;2023-12-20T15:43:04;10.70;99.90
21169;DHT22;10742;51.816;8.662;2023-12-20T15:46:25;10.70;99.90
21169;DHT22;10742;51.816;8.662;2023-12-20T15:49:47;10.80;99.90
21169;DHT22;10742;51.816;8.662;2023-12-20T15:53:10;10.80;99.90
21169;DHT22;10742;51.816;8.662;2023-12-20T15:56:32;10.80;99.90
21169;DHT22;10742;51.816;8.662;2023-12-20T15:59:54;10.90;99.90
21169;DHT22;10742;51.816;8.662;2023-12-20T16:03:15;10.90;99.90
21169;DHT22;10742;51.816;8.662;2023-12-20T16:06:36;11.00;99.90
21169;DHT22;10742;51.816;8.662;2023-12-20T16:09:58;11.00;99.90
21169;DHT22;10742;51.816;8.662;2023-12-20T16:13:21;11.00;99.90
21169;DHT22;10742;51.816;8.662;2023-12-20T16:16:42;11.10;99.90
21169;DHT22;10742;51.816;8.662;2023-12-20T16:20:04;11.10;99.90
21169;DHT22;10742;51.816;8.662;2023-12-20T16:23:26;11.10;99.90
21169;DHT22;10742;51.816;8.662;2023-12-20T16:26:48;11.10;99.90
21169;DHT22;10742;51.816;8.662;2023-12-20T16:30:09;11.10;99.90
21169;DHT22;10742;51.816;8.662;2023-12-20T16:33:30;11.10;99.90
21169;DHT22;10742;51.816;8.662;2023-12-20T16:36:53;11.10;99.90
21169;DHT22;10742;51.816;8.662;2023-12-20T16:40:15;11.10;99.90
21169;DHT22;10742;51.816;8.662;2023-12-20T16:43:37;11.10;99.90
21169;DHT22;10742;51.816;8.662;2023-12-20T16:46:58;11.10;99.90
21169;DHT22;10742;51.816;8.662;2023-12-20T16:50:19;11.10;99.90
21169;DHT22;10742;51.816;8.662;2023-12-20T16:53:41;11.10;99.90
21169;DHT22;10742;51.816;8.662;2023-12-20T16:57:02;11.20;99.90
21169;DHT22;10742;51.816;8.662;2023-12-20T17:00:24;11.10;99.90
21169;DHT22;10742;51.816;8.662;2023-12-20T17:03:47;11.10;99.90
21169;DHT22;10742;51.816;8.662;2023-12-20T17:07:08;11.10;99.90
21169;DHT22;10742;51.816;8.662;2023-12-20T17:10:30;11.10;99.90
21169;DHT22;10742;51.816;8.662;2023-12-20T17:13:51;11.10;99.90
21169;DHT22;10742;51.816;8.662;2023-12-20T17:17:13;11.10;99.90
21169;DHT22;10742;51.816;8.662;2023-12-20T17:20:34;11.10;99.90
21169;DHT22;10742;51.816;8.662;2023-12-20T17:23:56;11.10;99.90
21169;DHT22;10742;51.816;8.662;2023-12-20T17:27:17;11.10;99.90
21169;DHT22;10742;51.816;8.662;2023-12-20T17:30:39;11.20;99.90
21169;DHT22;10742;51.816;8.662;2023-12-20T17:34:00;11.20;99.90
21169;DHT22;10742;51.816;8.662;2023-12-20T17:37:22;11.10;99.90
21169;DHT22;10742;51.816;8.662;2023-12-20T17:40:43;11.20;99.90
21169;DHT22;10742;51.816;8.662;2023-12-20T17:44:06;11.20;99.90
21169;DHT22;10742;51.816;8.662;2023-12-20T17:47:27;11.20;99.90
21169;DHT22;10742;51.816;8.662;2023-12-20T17:50:49;11.20;99.90
21169;DHT22;10742;51.816;8.662;2023-12-20T17:54:10;11.20;99.90
21169;DHT22;10742;51.816;8.662;2023-12-20T17:57:31;11.20;99.90
21169;DHT22;10742;51.816;8.662;2023-12-20T18:00:52;11.20;99.90
21169;DHT22;10742;51.816;8.662;2023-12-20T18:04:14;11.20;99.90
21169;DHT22;10742;51.816;8.662;2023-12-20T18:07:37;11.20;99.90
21169;DHT22;10742;51.816;8.662;2023-12-20T18:10:59;11.20;99.90
21169;DHT22;10742;51.816;8.662;2023-12-20T18:14:20;11.30;99.90
21169;DHT22;10742;51.816;8.662;2023-12-20T18:17:43;11.30;99.90
21169;DHT22;10742;51.816;8.662;2023-12-20T18:21:05;11.30;99.90
21169;DHT22;10742;51.816;8.662;2023-12-20T18:24:27;11.30;99.90
21169;DHT22;10742;51.816;8.662;2023-12-20T18:27:48;11.30;99.90
21169;DHT22;10742;51.816;8.662;2023-12-20T18:31:09;11.30;99.90
21169;DHT22;10742;51.816;8.662;2023-12-20T18:34:30;11.30;99.90
21169;DHT22;10742;51.816;8.662;2023-12-20T18:37:54;11.30;99.90
21169;DHT22;10742;51.816;8.662;2023-12-20T18:41:16;11.30;99.90
21169;DHT22;10742;51.816;8.662;2023-12-20T18:44:38;11.30;99.90
21169;DHT22;10742;51.816;8.662;2023-12-20T18:48:00;11.30;99.90
21169;DHT22;10742;51.816;8.662;2023-12-20T18:51:21;11.30;99.90
21169;DHT22;10742;51.816;8.662;2023-12-20T18:54:43;11.30;99.90
21169;DHT22;10742;51.816;8.662;2023-12-20T18:58:04;11.30;99.90
21169;DHT22;10742;51.816;8.662;2023-12-20T19:01:26;11.30;99.90
21169;DHT22;10742;51.816;8.662;2023-12-20T19:04:47;11.30;99.90
21169;DHT22;10742;51.816;8.662;2023-12-20T19:08:08;11.30;99.90
21169;DHT22;10742;51.816;8.662;2023-12-20T19:11:30;11.30;99.90
21169;DHT22;10742;51.816;8.662;2023-12-20T19:14:52;11.40;99.90
21169;DHT22;10742;51.816;8.662;2023-12-20T19:18:14;11.40;99.90
21169;DHT22;10742;51.816;8.662;2023-12-20T19:21:35;11.40;99.90
21169;DHT22;10742;51.816;8.662;2023-12-20T19:24:57;11.30;99.90
21169;DHT22;10742;51.816;8.662;2023-12-20T19:28:20;11.40;99.90
21169;DHT22;10742;51.816;8.662;2023-12-20T19:31:42;11.40;99.90
21169;DHT22;10742;51.816;8.662;2023-12-20T19:35:03;11.40;99.90
21169;DHT22;10742;51.816;8.662;2023-12-20T19:38:25;11.40;99.90
21169;DHT22;10742;51.816;8.662;2023-12-20T19:41:46;11.40;99.90
21169;DHT22;10742;51.816;8.662;2023-12-20T19:45:08;11.40;99.90
21169;DHT22;10742;51.816;8.662;2023-12-20T19:48:31;11.40;99.90
21169;DHT22;10742;51.816;8.662;2023-12-20T19:51:52;11.40;99.90
21169;DHT22;10742;51.816;8.662;2023-12-20T19:55:14;11.40;99.90
21169;DHT22;10742;51.816;8.662;2023-12-20T19:58:35;11.40;99.90
21169;DHT22;10742;51.816;8.662;2023-12-20T20:01:57;11.40;99.90
21169;DHT22;10742;51.816;8.662;2023-12-20T20:05:21;11.40;99.90
21169;DHT22;10742;51.816;8.662;2023-12-20T20:08:42;11.40;99.90
21169;DHT22;10742;51.816;8.662;2023-12-20T20:12:04;11.40;99.90
21169;DHT22;10742;51.816;8.662;2023-12-20T20:15:25;11.40;99.90
21169;DHT22;10742;51.816;8.662;2023-12-20T20:18:47;11.40;99.90
21169;DHT22;10742;51.816;8.662;2023-12-20T20:22:08;11.40;99.90
21169;DHT22;10742;51.816;8.662;2023-12-20T20:25:30;11.50;99.90
21169;DHT22;10742;51.816;8.662;2023-12-20T20:28:51;11.50;99.90
21169;DHT22;10742;51.816;8.662;2023-12-20T20:32:13;11.50;99.90
21169;DHT22;10742;51.816;8.662;2023-12-20T20:35:34;11.50;99.90
21169;DHT22;10742;51.816;8.662;2023-12-20T20:38:56;11.50;99.90
21169;DHT22;10742;51.816;8.662;2023-12-20T20:42:17;11.50;99.90
21169;DHT22;10742;51.816;8.662;2023-12-20T20:45:38;11.50;99.90
21169;DHT22;10742;51.816;8.662;2023-12-20T20:48:59;11.50;99.90
21169;DHT22;10742;51.816;8.662;2023-12-20T20:52:21;11.50;99.90
21169;DHT22;10742;51.816;8.662;2023-12-20T20:55:42;11.50;99.90
21169;DHT22;10742;51.816;8.662;2023-12-20T20:59:03;11.50;99.90
21169;DHT22;10742;51.816;8.662;2023-12-20T21:02:25;11.50;99.90
21169;DHT22;10742;51.816;8.662;2023-12-20T21:05:46;11.50;99.90
21169;DHT22;10742;51.816;8.662;2023-12-20T21:09:08;11.60;99.90
21169;DHT22;10742;51.816;8.662;2023-12-20T21:12:30;11.50;99.90
21169;DHT22;10742;51.816;8.662;2023-12-20T21:15:52;11.50;99.90